Snoqualmie River: Middle Fork station

back to: Snoqualmie river
Middle Fork station Summary - (NOAA Hydrograph: TANW1)
Latest reading:
Mon08/19 11:15 am 1.2 ft 194 cfs (+24/hr)
Past 24hr max:
Sun08/18 12:00 pm 1.22 ft 199 cfs
Forecasted crests: (published Mon 08/19/19 08:57 am)
Wed08/21 05:00 pm 1.65 ft 302 cfs

Middle Fork station Details

Latest Readings

Last 100 Readings:
Mon08/19 11:15 am 1.2 ft 194 cfs
Mon08/19 11:00 am 1.17 ft 188 cfs
Mon08/19 10:45 am 1.16 ft 186 cfs
Mon08/19 10:30 am 1.17 ft 188 cfs
Mon08/19 10:15 am 1.16 ft 186 cfs
Mon08/19 10:00 am 1.15 ft 184 cfs
Mon08/19 09:45 am 1.16 ft 186 cfs
Mon08/19 09:30 am 1.15 ft 184 cfs
Mon08/19 09:15 am 1.17 ft 188 cfs
Mon08/19 09:00 am 1.18 ft 190 cfs
Mon08/19 08:45 am 1.17 ft 188 cfs
Mon08/19 08:30 am 1.15 ft 184 cfs
Mon08/19 08:15 am 1.16 ft 186 cfs
Mon08/19 08:00 am 1.15 ft 184 cfs
Mon08/19 07:45 am 1.17 ft 188 cfs
Mon08/19 07:30 am 1.16 ft 186 cfs
Mon08/19 07:15 am 1.17 ft 188 cfs
Mon08/19 07:00 am 1.14 ft 182 cfs
Mon08/19 06:45 am 1.15 ft 184 cfs
Mon08/19 06:30 am 1.15 ft 184 cfs
Mon08/19 06:15 am 1.16 ft 186 cfs
Mon08/19 06:00 am 1.15 ft 184 cfs
Mon08/19 05:45 am 1.15 ft 184 cfs
Mon08/19 05:30 am 1.14 ft 182 cfs
Mon08/19 05:15 am 1.14 ft 182 cfs
Mon08/19 05:00 am 1.13 ft 180 cfs
Mon08/19 04:45 am 1.16 ft 186 cfs
Mon08/19 04:30 am 1.13 ft 180 cfs
Mon08/19 04:15 am 1.16 ft 186 cfs
Mon08/19 04:00 am 1.14 ft 182 cfs
Mon08/19 03:45 am 1.15 ft 184 cfs
Mon08/19 03:30 am 1.14 ft 182 cfs
Mon08/19 03:15 am 1.15 ft 184 cfs
Mon08/19 03:00 am 1.15 ft 184 cfs
Mon08/19 02:45 am 1.15 ft 184 cfs
Mon08/19 02:30 am 1.15 ft 184 cfs
Mon08/19 02:15 am 1.14 ft 182 cfs
Mon08/19 02:00 am 1.14 ft 182 cfs
Mon08/19 01:45 am 1.15 ft 184 cfs
Mon08/19 01:30 am 1.16 ft 186 cfs
Mon08/19 01:15 am 1.15 ft 184 cfs
Mon08/19 01:00 am 1.15 ft 184 cfs
Mon08/19 12:45 am 1.15 ft 184 cfs
Mon08/19 12:30 am 1.16 ft 186 cfs
Mon08/19 12:15 am 1.15 ft 184 cfs
Mon08/19 12:00 am 1.16 ft 186 cfs
Sun08/18 11:45 pm 1.16 ft 186 cfs
Sun08/18 11:30 pm 1.18 ft 190 cfs
Sun08/18 11:15 pm 1.17 ft 188 cfs
Sun08/18 11:00 pm 1.17 ft 188 cfs
Sun08/18 10:45 pm 1.16 ft 186 cfs
Sun08/18 10:30 pm 1.18 ft 190 cfs
Sun08/18 10:15 pm 1.17 ft 188 cfs
Sun08/18 10:00 pm 1.16 ft 186 cfs
Sun08/18 09:45 pm 1.16 ft 186 cfs
Sun08/18 09:30 pm 1.17 ft 188 cfs
Sun08/18 09:15 pm 1.17 ft 188 cfs
Sun08/18 09:00 pm 1.16 ft 186 cfs
Sun08/18 08:45 pm 1.17 ft 188 cfs
Sun08/18 08:30 pm 1.17 ft 188 cfs
Sun08/18 08:15 pm 1.18 ft 190 cfs
Sun08/18 08:00 pm 1.17 ft 188 cfs
Sun08/18 07:45 pm 1.18 ft 190 cfs
Sun08/18 07:30 pm 1.2 ft 194 cfs
Sun08/18 07:15 pm 1.17 ft 188 cfs
Sun08/18 07:00 pm 1.17 ft 188 cfs
Sun08/18 06:45 pm 1.19 ft 192 cfs
Sun08/18 06:30 pm 1.19 ft 192 cfs
Sun08/18 06:15 pm 1.18 ft 190 cfs
Sun08/18 06:00 pm 1.19 ft 192 cfs
Sun08/18 05:45 pm 1.17 ft 188 cfs
Sun08/18 05:30 pm 1.18 ft 190 cfs
Sun08/18 05:15 pm 1.19 ft 192 cfs
Sun08/18 05:00 pm 1.2 ft 194 cfs
Sun08/18 04:45 pm 1.18 ft 190 cfs
Sun08/18 04:30 pm 1.2 ft 194 cfs
Sun08/18 04:15 pm 1.17 ft 188 cfs
Sun08/18 04:00 pm 1.19 ft 192 cfs
Sun08/18 03:45 pm 1.2 ft 194 cfs
Sun08/18 03:30 pm 1.18 ft 190 cfs
Sun08/18 03:15 pm 1.21 ft 197 cfs
Sun08/18 03:00 pm 1.18 ft 190 cfs
Sun08/18 02:47 pm 1.19 ft 192 cfs
Sun08/18 02:45 pm 1.19 ft 192 cfs
Sun08/18 02:30 pm 1.19 ft 192 cfs
Sun08/18 02:15 pm 1.2 ft 194 cfs
Sun08/18 02:00 pm 1.19 ft 192 cfs
Sun08/18 01:45 pm 1.2 ft 194 cfs
Sun08/18 01:30 pm 1.2 ft 194 cfs
Sun08/18 01:15 pm 1.19 ft 192 cfs
Sun08/18 01:00 pm 1.2 ft 194 cfs
Sun08/18 12:45 pm 1.2 ft 194 cfs
Sun08/18 12:30 pm 1.2 ft 194 cfs
Sun08/18 12:15 pm 1.19 ft 192 cfs
Sun08/18 12:00 pm 1.22 ft 199 cfs
Sun08/18 11:45 am 1.19 ft 192 cfs
Sun08/18 11:30 am 1.21 ft 197 cfs
Sun08/18 11:15 am 1.19 ft 192 cfs
Sun08/18 11:00 am 1.2 ft 194 cfs
Sun08/18 10:45 am 1.19 ft 192 cfs

Latest Forecasts

Currently Forecasted Readings:
Mon08/19 11:00 am 1.13 ft 180 cfs
Mon08/19 05:00 pm 1.12 ft 178 cfs
Mon08/19 11:00 pm 1.12 ft 178 cfs
Tue08/20 05:00 am 1.11 ft 177 cfs
Tue08/20 11:00 am 1.11 ft 177 cfs
Tue08/20 05:00 pm 1.11 ft 177 cfs
Tue08/20 11:00 pm 1.11 ft 176 cfs
Wed08/21 05:00 am 1.1 ft 174 cfs
Wed08/21 11:00 am 1.23 ft 201 cfs
Wed08/21 05:00 pm 1.65 ft 302 cfs
Wed08/21 11:00 pm 1.37 ft 231 cfs
Thu08/22 05:00 am 1.21 ft 196 cfs
Thu08/22 11:00 am 1.09 ft 173 cfs
Thu08/22 05:00 pm 1.08 ft 171 cfs
Thu08/22 11:00 pm 1.08 ft 170 cfs
Fri08/23 05:00 am 1.08 ft 170 cfs
Fri08/23 11:00 am 1.07 ft 170 cfs
Fri08/23 05:00 pm 1.07 ft 169 cfs
Fri08/23 11:00 pm 1.07 ft 169 cfs
Sat08/24 05:00 am 1.06 ft 168 cfs
Sat08/24 11:00 am 1.06 ft 167 cfs
Sat08/24 05:00 pm 1.06 ft 166 cfs
Sat08/24 11:00 pm 1.05 ft 166 cfs
Sun08/25 05:00 am 1.05 ft 165 cfs
Sun08/25 11:00 am 1.05 ft 165 cfs
Sun08/25 05:00 pm 1.04 ft 164 cfs
Sun08/25 11:00 pm 1.04 ft 163 cfs
Mon08/26 05:00 am 1.04 ft 163 cfs
Mon08/26 11:00 am 1.04 ft 163 cfs
Mon08/26 05:00 pm 1.03 ft 162 cfs
Mon08/26 11:00 pm 1.03 ft 161 cfs
Tue08/27 05:00 am 1.03 ft 161 cfs
Tue08/27 11:00 am 1.02 ft 160 cfs
Tue08/27 05:00 pm 1.02 ft 159 cfs
Tue08/27 11:00 pm 1.02 ft 159 cfs
Wed08/28 05:00 am 1.01 ft 158 cfs
Wed08/28 11:00 am 1.01 ft 157 cfs
Wed08/28 05:00 pm 1.01 ft 157 cfs
Wed08/28 11:00 pm 1.0 ft 156 cfs
Thu08/29 05:00 am 1.06 ft 167 cfs

Snoqualmie River flood gauge data supplied by the
National Weather Service Northwest River Forecast Center.

Sign up for Floodzilla alerts.